Time;durP1;ratioP1;P1;durP2;ratioP2;P2;SDS_P1;SDS_P2;PMS_P1;PMS_P2;Temp;Humidity;BMP_temperature;BMP_pressure;BME280_temperature;BME280_humidity;BME280_pressure;Samples;Min_cycle;Max_cycle;Signal;HPM_P1;HPM_P2
2022/01/05 00:01:05;;;;;;;4.50;1.20;;;;;;;1.84;96.69;97537.70;105032;1274;73230;-68
2022/01/05 00:04:10;;;;;;;5.10;1.20;;;;;;;1.82;96.98;97534.06;105238;1274;59396;-68
2022/01/05 00:11:23;;;;;;;4.20;1.00;;;;;;;1.59;96.27;97536.45;105149;1274;72454;-68
2022/01/05 00:14:53;;;;;;;5.50;1.20;;;;;;;1.45;96.68;97544.10;105198;1273;68533;-68
2022/01/05 00:17:51;;;;;;;6.00;1.30;;;;;;;1.38;96.98;97544.42;104971;1273;71688;-68
2022/01/05 00:21:42;;;;;;;6.20;1.30;;;;;;;1.34;97.08;97547.01;104865;1273;59533;-68
2022/01/05 00:24:48;;;;;;;;;;;;;;;;;;;;;
2022/01/05 00:29:15;;;;;;;6.70;1.50;;;;;;;1.21;96.89;97542.48;105007;1273;73756;-68
2022/01/05 00:32:30;;;;;;;7.60;1.00;;;;;;;1.12;96.85;97544.58;104988;1273;67098;-68
2022/01/05 00:36:04;;;;;;;7.90;1.20;;;;;;;1.06;96.76;97542.60;105006;1273;70546;-68
2022/01/05 00:39:09;;;;;;;6.50;1.20;;;;;;;0.98;96.59;97550.70;105001;1273;60249;-68
2022/01/05 00:42:13;;;;;;;6.10;1.20;;;;;;;0.92;97.23;97552.21;105179;1273;60443;-68
2022/01/05 00:45:23;;;;;;;7.10;1.20;;;;;;;0.87;97.14;97557.38;105061;1273;71295;-68
2022/01/05 00:48:15;;;;;;;7.00;1.60;;;;;;;0.81;97.27;97563.38;105275;1273;66863;-68
2022/01/05 00:51:38;;;;;;;6.70;1.60;;;;;;;0.76;97.38;97560.14;105084;1273;73113;-68
2022/01/05 00:54:46;;;;;;;7.30;1.60;;;;;;;0.68;97.70;97557.19;104966;1273;59533;-69
2022/01/05 00:57:45;;;;;;;7.50;1.20;;;;;;;0.64;97.99;97558.38;105036;1273;59434;-68
2022/01/05 01:00:53;;;;;;;9.50;1.70;;;;;;;0.60;98.30;97562.41;105252;1273;71588;-68
2022/01/05 01:04:46;;;;;;;7.00;1.50;;;;;;;0.56;98.35;97566.86;104904;1273;68824;-68
2022/01/05 01:07:42;;;;;;;5.80;1.40;;;;;;;0.53;98.44;97568.70;105358;1274;71810;-68
2022/01/05 01:11:09;;;;;;;12.20;2.00;;;;;;;0.49;98.75;97573.18;105278;1274;59424;-68
2022/01/05 01:14:23;;;;;;;5.50;1.30;;;;;;;0.43;98.74;97582.00;105392;1273;59706;-68
2022/01/05 01:17:27;;;;;;;;;;;;;;;;;;;;;
2022/01/05 01:20:38;;;;;;;6.90;1.40;;;;;;;0.36;99.67;97575.16;105120;1272;68873;-68
2022/01/05 01:23:33;;;;;;;7.90;1.40;;;;;;;0.39;99.92;97573.55;105131;1273;73235;-68
2022/01/05 01:26:30;;;;;;;9.20;1.50;;;;;;;0.42;99.94;97571.81;104812;1274;59385;-68
2022/01/05 01:29:44;;;;;;;6.50;1.60;;;;;;;0.42;99.99;97572.17;105103;1273;59329;-68
2022/01/05 01:32:54;;;;;;;7.80;1.70;;;;;;;0.41;99.81;97576.73;104992;1273;72452;-67
2022/01/05 01:35:55;;;;;;;9.70;1.30;;;;;;;0.40;99.89;97581.73;105336;1274;66696;-67
2022/01/05 01:38:53;;;;;;;8.00;1.50;;;;;;;0.40;99.81;97588.86;105077;1273;71879;-67
2022/01/05 01:42:10;;;;;;;13.60;2.20;;;;;;;0.42;99.86;97587.78;105008;1273;59373;-67
2022/01/05 01:45:27;;;;;;;11.80;2.00;;;;;;;0.48;99.88;97590.17;105078;1273;59321;-68
2022/01/05 01:48:40;;;;;;;8.10;1.50;;;;;;;0.54;99.58;97593.20;105001;1272;72811;-67
2022/01/05 01:51:34;;;;;;;6.60;1.20;;;;;;;0.61;99.12;97589.88;105174;1273;67346;-67
2022/01/05 01:54:35;;;;;;;8.70;1.50;;;;;;;0.69;98.64;97589.98;104974;1273;72901;-67
2022/01/05 01:58:19;;;;;;;15.70;1.90;;;;;;;0.79;98.04;97591.64;105208;1273;59444;-67
2022/01/05 02:01:21;;;;;;;6.30;1.40;;;;;;;0.84;97.33;97591.06;105231;1273;59363;-67
2022/01/05 02:04:55;;;;;;;9.50;1.80;;;;;;;0.89;96.66;97596.64;105239;1273;72878;-67
2022/01/05 02:08:11;;;;;;;7.70;1.60;;;;;;;0.93;96.86;97597.20;105033;1273;67050;-67
2022/01/05 02:12:15;;;;;;;10.60;1.50;;;;;;;0.94;96.52;97602.52;105084;1273;74276;-68
2022/01/05 02:16:04;;;;;;;7.00;1.30;;;;;;;0.94;95.98;97604.31;105005;1273;59192;-67
2022/01/05 02:19:25;;;;;;;9.00;1.50;;;;;;;0.95;96.04;97610.48;104820;1278;59560;-68
2022/01/05 02:22:44;;;;;;;9.20;1.60;;;;;;;0.99;96.10;97616.30;104523;1278;73207;-67
2022/01/05 02:25:47;;;;;;;8.30;1.60;;;;;;;1.03;95.97;97620.00;104826;1277;68414;-68
2022/01/05 02:29:08;;;;;;;11.50;1.60;;;;;;;1.09;95.77;97629.36;104698;1278;72992;-68
2022/01/05 02:32:00;;;;;;;9.80;1.70;;;;;;;1.10;94.94;97641.11;104839;1277;59350;-67
2022/01/05 02:34:54;;;;;;;11.60;2.00;;;;;;;1.11;94.33;97643.19;104609;1278;60513;-68
2022/01/05 02:38:07;;;;;;;7.50;1.50;;;;;;;1.13;94.47;97645.77;104782;1277;73266;-67
2022/01/05 02:45:00;;;;;;;8.80;1.60;;;;;;;1.18;93.85;97645.44;104830;1277;73011;-68
2022/01/05 02:48:33;;;;;;;10.70;1.70;;;;;;;1.14;93.62;97646.93;104675;1277;59502;-68
2022/01/05 02:51:43;;;;;;;4.90;1.20;;;;;;;1.08;93.38;97644.61;104854;1278;60557;-68
2022/01/05 02:55:13;;;;;;;6.00;1.50;;;;;;;0.98;93.55;97644.66;104034;1278;1003151;-68
2022/01/05 02:58:19;;;;;;;10.00;1.70;;;;;;;0.90;93.64;97640.94;105370;1273;68025;-67
2022/01/05 03:01:23;;;;;;;10.00;2.00;;;;;;;0.81;93.55;97645.95;105007;1273;73042;-68
2022/01/05 03:05:10;;;;;;;7.20;1.90;;;;;;;0.73;93.86;97649.38;105431;1274;59362;-69
2022/01/05 03:08:00;;;;;;;9.00;1.80;;;;;;;0.65;94.13;97653.77;105021;1274;60825;-68
2022/01/05 03:11:06;;;;;;;8.00;1.40;;;;;;;0.60;94.38;97658.34;105326;1274;72513;-68
2022/01/05 03:14:35;;;;;;;7.90;1.90;;;;;;;0.55;94.46;97659.77;105458;1274;66856;-68
2022/01/05 03:17:32;;;;;;;8.00;1.30;;;;;;;0.50;94.52;97652.65;104918;1273;73116;-68
2022/01/05 03:20:50;;;;;;;9.90;2.00;;;;;;;0.45;94.32;97656.83;104994;1274;59426;-67
2022/01/05 03:23:47;;;;;;;6.70;1.70;;;;;;;0.42;94.36;97652.69;105173;1273;60890;-68
2022/01/05 03:26:41;;;;;;;10.50;1.90;;;;;;;0.40;94.30;97659.67;105007;1274;71441;-68
2022/01/05 03:29:43;;;;;;;7.40;1.90;;;;;;;0.38;94.38;97657.43;104891;1273;68064;-68
2022/01/05 03:32:46;;;;;;;8.20;1.40;;;;;;;0.33;94.53;97655.95;104845;1274;73190;-68
2022/01/05 03:35:43;;;;;;;7.00;1.70;;;;;;;0.32;94.74;97660.05;105056;1274;59670;-68
2022/01/05 03:38:39;;;;;;;9.00;1.50;;;;;;;0.32;94.64;97646.97;105086;1274;60583;-68
2022/01/05 03:41:35;;;;;;;9.00;1.50;;;;;;;0.31;94.68;97647.39;105020;1274;73381;-68
2022/01/05 03:44:36;;;;;;;11.70;2.10;;;;;;;0.29;94.54;97648.42;105062;1272;66821;-68
2022/01/05 03:47:25;;;;;;;11.90;1.70;;;;;;;0.27;94.68;97644.58;105354;1274;72311;-68
2022/01/05 03:50:19;;;;;;;9.60;2.00;;;;;;;0.25;94.60;97647.00;104693;1274;59803;-68
2022/01/05 03:53:37;;;;;;;8.20;2.00;;;;;;;0.24;94.66;97647.05;104841;1275;60557;-68
2022/01/05 03:57:12;;;;;;;9.00;1.80;;;;;;;0.23;94.61;97640.65;104872;1273;75149;-68
2022/01/05 04:00:43;;;;;;;7.20;1.50;;;;;;;0.24;94.47;97637.97;105230;1274;68194;-67
2022/01/05 04:04:06;;;;;;;11.90;2.60;;;;;;;0.24;94.51;97636.05;104847;1277;72919;-68
2022/01/05 04:08:03;;;;;;;12.50;2.10;;;;;;;0.27;94.53;97633.91;104858;1277;59659;-68
2022/01/05 04:11:08;;;;;;;10.70;1.80;;;;;;;0.28;94.25;97632.44;105047;1277;59725;-68
2022/01/05 04:14:04;;;;;;;7.80;1.70;;;;;;;0.28;94.20;97635.39;104924;1277;73352;-68
2022/01/05 04:17:32;;;;;;;13.00;2.50;;;;;;;0.26;94.32;97640.13;104794;1276;67966;-67
2022/01/05 04:20:34;;;;;;;8.00;1.60;;;;;;;0.23;94.40;97639.86;104747;1277;70997;-68
2022/01/05 04:23:28;;;;;;;9.60;1.90;;;;;;;0.19;94.45;97647.48;104701;1277;59600;-68
2022/01/05 04:26:59;;;;;;;6.80;1.80;;;;;;;0.15;94.58;97641.77;104653;1277;60566;-67
2022/01/05 04:29:59;;;;;;;8.40;1.80;;;;;;;0.14;94.65;97639.98;104775;1277;72173;-70
2022/01/05 04:32:50;;;;;;;6.20;1.60;;;;;;;0.10;94.82;97636.92;106123;1278;67677;-69
2022/01/05 04:36:26;;;;;;;6.60;1.80;;;;;;;0.07;94.85;97640.63;105150;1279;71320;-69
2022/01/05 04:44:08;;;;;;;10.10;2.10;;;;;;;-0.03;95.45;97639.93;105344;1273;61036;-69
2022/01/05 04:47:13;;;;;;;;;;;;;;;;;;;;;
2022/01/05 04:50:15;;;;;;;9.30;1.90;;;;;;;-0.05;95.63;97631.70;105331;1273;66964;-69
2022/01/05 04:53:26;;;;;;;8.80;2.00;;;;;;;-0.06;95.53;97628.30;104932;1274;73023;-69
2022/01/05 04:58:06;;;;;;;8.80;2.10;;;;;;;-0.07;95.56;97626.46;105548;1271;59771;-70
2022/01/05 05:02:36;;;;;;;11.80;2.10;;;;;;;-0.10;95.58;97623.90;104672;1279;59654;-69
2022/01/05 05:06:23;;;;;;;8.60;2.20;;;;;;;-0.12;95.89;97623.01;104535;1279;74643;-70
2022/01/05 05:10:25;;;;;;;8.90;2.00;;;;;;;-0.14;95.80;97617.55;104359;1279;66895;-68
2022/01/05 05:13:43;;;;;;;8.70;2.10;;;;;;;-0.15;96.01;97616.42;104703;1279;71914;-69
2022/01/05 05:16:39;;;;;;;12.20;2.20;;;;;;;-0.16;96.04;97614.64;104592;1279;59680;-68
2022/01/05 05:20:02;;;;;;;11.70;1.80;;;;;;;-0.19;96.30;97621.22;104720;1279;61895;-69
2022/01/05 05:23:35;;;;;;;12.30;2.50;;;;;;;-0.20;96.28;97624.80;104588;1280;73324;-68
2022/01/05 05:26:31;;;;;;;9.70;2.10;;;;;;;-0.23;96.43;97634.06;105456;1273;67300;-69
2022/01/05 05:29:29;;;;;;;12.00;2.30;;;;;;;-0.25;96.53;97634.41;105107;1274;71764;-68
2022/01/05 05:32:41;;;;;;;24.10;2.40;;;;;;;-0.25;96.80;97628.84;105349;1273;59773;-68
2022/01/05 05:36:05;;;;;;;8.80;2.50;;;;;;;-0.24;97.15;97629.98;103047;1274;1003382;-68
2022/01/05 05:39:08;;;;;;;15.50;3.20;;;;;;;-0.21;97.06;97637.39;105157;1273;73430;-68
2022/01/05 05:42:39;;;;;;;10.40;2.30;;;;;;;-0.18;97.21;97639.66;104874;1274;67360;-69
2022/01/05 05:45:43;;;;;;;10.70;2.30;;;;;;;-0.14;97.10;97641.30;105555;1274;73051;-69
2022/01/05 05:49:44;;;;;;;8.60;2.10;;;;;;;-0.12;96.74;97641.68;105175;1274;59679;-68
2022/01/05 05:53:09;;;;;;;11.20;2.40;;;;;;;-0.11;96.63;97639.86;105456;1281;59724;-68
2022/01/05 05:56:11;;;;;;;9.00;1.90;;;;;;;-0.13;96.70;97642.28;104993;1280;73140;-68
2022/01/05 05:59:07;;;;;;;12.20;2.30;;;;;;;-0.15;96.66;97647.15;104460;1280;66817;-68
2022/01/05 06:02:04;;;;;;;12.40;2.90;;;;;;;-0.18;96.70;97654.64;104618;1279;71604;-68
2022/01/05 06:05:06;;;;;;;8.40;2.60;;;;;;;-0.19;96.93;97656.96;104617;1280;59777;-69
2022/01/05 06:08:02;;;;;;;10.50;2.40;;;;;;;-0.15;97.09;97658.09;104599;1281;60408;-68
2022/01/05 06:16:15;;;;;;;10.40;2.10;;;;;;;-0.00;96.99;97672.04;103870;1285;66774;-68
2022/01/05 06:19:40;;;;;;;8.20;2.00;;;;;;;0.08;96.58;97667.77;101931;1285;3648207;-69
2022/01/05 06:23:30;;;;;;;10.50;2.70;;;;;;;0.15;96.34;97662.05;103955;1285;59709;-68
2022/01/05 06:26:39;;;;;;;8.60;2.00;;;;;;;0.21;96.04;97661.95;104042;1285;60227;-68
2022/01/05 06:29:34;;;;;;;14.90;2.50;;;;;;;0.24;95.82;97658.94;104266;1281;72249;-69
2022/01/05 06:32:30;;;;;;;9.60;2.20;;;;;;;0.25;95.76;97663.90;105042;1281;68523;-69
2022/01/05 06:35:33;;;;;;;8.00;2.30;;;;;;;0.24;95.85;97661.87;104980;1281;73184;-69
2022/01/05 06:39:04;;;;;;;8.00;2.40;;;;;;;0.25;95.59;97667.25;104690;1281;59723;-68
2022/01/05 06:42:40;;;;;;;11.40;2.50;;;;;;;0.28;95.77;97673.10;104377;1285;59735;-68
2022/01/05 06:45:44;;;;;;;10.50;2.50;;;;;;;0.30;95.47;97678.88;101968;1286;1003563;-68
2022/01/05 06:48:43;;;;;;;11.70;2.40;;;;;;;0.33;95.66;97676.73;104171;1287;68302;-68
2022/01/05 06:51:38;;;;;;;10.40;2.50;;;;;;;0.33;95.63;97678.45;104704;1279;73051;-69
2022/01/05 06:54:29;;;;;;;11.10;3.00;;;;;;;0.34;95.56;97676.63;104603;1278;59723;-69
2022/01/05 06:57:39;;;;;;;;;;;;;;;;;;;;;
2022/01/05 07:01:14;;;;;;;12.60;3.30;;;;;;;0.36;95.54;97676.89;105361;1274;73610;-70
2022/01/05 07:04:09;;;;;;;12.60;3.90;;;;;;;0.39;95.74;97676.52;105304;1274;68800;-68
2022/01/05 07:07:07;;;;;;;16.10;3.80;;;;;;;0.42;95.84;97677.02;104845;1274;71918;-69
2022/01/05 07:10:17;;;;;;;11.20;3.20;;;;;;;0.47;95.82;97672.44;105067;1274;59663;-68
2022/01/05 07:13:29;;;;;;;12.90;3.60;;;;;;;0.50;95.70;97670.61;105251;1274;59709;-68
2022/01/05 07:16:26;;;;;;;14.30;3.80;;;;;;;0.53;95.53;97679.29;105197;1274;72186;-68
2022/01/05 07:19:20;;;;;;;11.20;3.70;;;;;;;0.57;95.50;97676.09;105526;1274;68255;-69
2022/01/05 07:22:10;;;;;;;14.30;4.10;;;;;;;0.59;95.30;97681.83;105347;1273;71924;-68
2022/01/05 07:25:33;;;;;;;14.50;4.20;;;;;;;0.62;95.41;97687.55;105302;1274;59571;-69
2022/01/05 07:28:31;;;;;;;16.30;4.70;;;;;;;0.62;95.16;97687.90;105085;1274;59699;-70
2022/01/05 07:32:28;;;;;;;13.00;4.00;;;;;;;0.66;95.06;97693.50;105400;1274;73798;-70
2022/01/05 07:35:30;;;;;;;12.80;4.00;;;;;;;0.69;94.83;97699.36;105110;1276;66577;-71
2022/01/05 07:38:32;;;;;;;13.80;4.60;;;;;;;0.75;94.92;97695.82;105094;1277;71962;-69
2022/01/05 07:41:25;;;;;;;12.40;4.00;;;;;;;0.80;94.62;97695.09;105396;1273;59863;-69
2022/01/05 07:49:03;;;;;;;13.90;4.50;;;;;;;0.86;94.05;97700.09;105563;1274;73484;-69
2022/01/05 07:52:07;;;;;;;14.10;4.20;;;;;;;0.89;93.91;97708.02;105421;1274;67330;-69
2022/01/05 07:54:55;;;;;;;14.90;4.30;;;;;;;0.92;93.64;97702.61;105110;1273;72909;-70
2022/01/05 07:57:43;;;;;;;18.40;4.70;;;;;;;0.98;93.47;97701.61;105342;1273;59557;-68
2022/01/05 08:00:32;;;;;;;13.20;4.20;;;;;;;1.05;93.41;97704.09;104715;1273;59737;-69
2022/01/05 08:03:20;;;;;;;11.40;4.00;;;;;;;1.10;93.26;97697.21;105003;1273;73256;-69
2022/01/05 08:06:28;;;;;;;14.00;5.10;;;;;;;1.08;92.24;97694.39;105338;1273;67953;-68
2022/01/05 08:09:19;;;;;;;13.70;4.50;;;;;;;1.03;92.60;97684.29;104995;1273;71466;-69
2022/01/05 08:12:08;;;;;;;15.40;4.80;;;;;;;0.99;92.59;97686.52;104885;1277;59861;-69
2022/01/05 08:14:58;;;;;;;16.30;5.10;;;;;;;0.97;92.80;97686.67;104804;1277;59637;-68
2022/01/05 08:18:36;;;;;;;12.60;3.90;;;;;;;0.97;93.10;97688.23;104856;1277;72466;-68
2022/01/05 08:21:56;;;;;;;;;;;;;;;;;;;;;
2022/01/05 08:24:49;;;;;;;15.50;4.90;;;;;;;0.90;93.12;97691.56;104741;1277;71712;-68
2022/01/05 08:27:52;;;;;;;14.00;4.90;;;;;;;0.92;93.02;97690.36;104909;1276;59799;-68
2022/01/05 08:35:51;;;;;;;14.60;5.10;;;;;;;0.94;93.05;97705.35;105239;1277;71938;-68
2022/01/05 08:38:41;;;;;;;15.30;5.90;;;;;;;0.95;92.86;97698.33;104858;1277;67191;-70
2022/01/05 08:41:37;;;;;;;18.00;7.00;;;;;;;0.96;92.72;97689.20;105075;1277;73029;-69
2022/01/05 08:44:37;;;;;;;16.90;6.30;;;;;;;1.01;92.79;97686.03;105444;1273;59660;-69
2022/01/05 08:47:47;;;;;;;11.60;4.10;;;;;;;1.07;92.51;97689.76;105475;1273;59591;-68
2022/01/05 08:50:43;;;;;;;12.20;5.50;;;;;;;1.11;92.24;97692.04;105222;1273;73501;-69
2022/01/05 08:55:04;;;;;;;16.60;4.90;;;;;;;1.14;92.27;97689.17;105203;1273;68210;-68
2022/01/05 08:58:42;;;;;;;14.80;4.30;;;;;;;1.23;91.80;97687.48;105000;1273;73053;-69
2022/01/05 09:01:48;;;;;;;12.80;4.30;;;;;;;1.28;91.46;97687.21;105442;1273;59670;-69
2022/01/05 09:05:08;;;;;;;13.40;4.60;;;;;;;1.31;90.88;97685.64;105289;1274;60224;-69
2022/01/05 09:09:38;;;;;;;14.20;4.10;;;;;;;1.41;91.01;97682.91;104839;1277;71039;-69
2022/01/05 09:12:44;;;;;;;15.40;5.10;;;;;;;1.57;90.20;97673.45;104771;1278;68872;-69
2022/01/05 09:20:55;;;;;;;;;;;;;;;;;;;;;
2022/01/05 09:24:14;;;;;;;16.70;4.80;;;;;;;2.68;85.45;97670.63;105008;1275;60632;-69
2022/01/05 09:27:08;;;;;;;18.60;5.50;;;;;;;2.85;84.29;97675.84;105548;1273;72250;-69
2022/01/05 09:30:59;;;;;;;14.10;4.60;;;;;;;2.92;84.21;97669.73;104817;1279;68135;-69
2022/01/05 09:34:15;;;;;;;11.30;4.00;;;;;;;3.28;83.39;97671.24;105040;1277;73818;-69
2022/01/05 09:38:35;;;;;;;11.20;3.80;;;;;;;3.86;80.79;97669.85;104716;1277;59595;-69
2022/01/05 09:46:34;;;;;;;11.20;3.70;;;;;;;7.62;66.64;97646.74;104507;1284;73072;-70
2022/01/05 09:59:02;;;;;;;12.70;3.30;;;;;;;7.89;60.11;97657.29;104483;1289;59865;-69
2022/01/05 10:01:55;;;;;;;12.90;3.20;;;;;;;7.45;61.79;97658.70;103970;1285;59794;-70
2022/01/05 10:09:41;;;;;;;10.90;3.60;;;;;;;8.37;58.77;97656.73;104772;1288;68017;-70
2022/01/05 10:23:42;;;;;;;11.20;3.70;;;;;;;12.84;46.86;97650.50;103253;1297;60071;-72
2022/01/05 10:27:03;;;;;;;;;;;;;;;;;;;;;
2022/01/05 10:40:19;;;;;;;9.60;2.80;;;;;;;12.50;43.26;97651.13;104317;1288;60105;-70
2022/01/05 10:43:26;;;;;;;8.50;2.80;;;;;;;12.04;43.18;97648.51;104284;1289;60796;-70
2022/01/05 10:52:32;;;;;;;9.50;2.80;;;;;;;13.08;41.73;97640.28;104270;1288;67814;-70
2022/01/05 10:57:06;;;;;;;10.40;2.90;;;;;;;13.23;41.33;97633.65;105311;1277;73206;-70
2022/01/05 11:00:05;;;;;;;10.60;3.30;;;;;;;14.19;40.28;97637.35;104624;1277;1003580;-70
2022/01/05 11:03:39;;;;;;;11.10;3.80;;;;;;;14.30;38.39;97636.73;105565;1277;60395;-71
2022/01/05 11:07:19;;;;;;;;;;;;;;;;;;;;;
2022/01/05 11:11:40;;;;;;;10.20;2.80;;;;;;;14.09;38.87;97631.77;104789;1284;68387;-70
2022/01/05 11:25:29;;;;;;;10.80;2.90;;;;;;;13.05;39.16;97632.73;104160;1285;60550;-71
2022/01/05 11:29:33;;;;;;;10.60;3.10;;;;;;;13.43;39.88;97630.00;104278;1284;71796;-70
2022/01/05 11:34:16;;;;;;;10.90;3.40;;;;;;;13.51;39.06;97630.30;104537;1285;66475;-70
2022/01/05 11:38:29;;;;;;;11.70;3.50;;;;;;;12.45;39.26;97621.69;103634;1300;73379;-71
2022/01/05 11:41:43;;;;;;;9.40;2.90;;;;;;;12.30;40.49;97618.39;103371;1300;59927;-71
2022/01/05 11:45:30;;;;;;;13.10;3.10;;;;;;;12.31;40.84;97613.84;102887;1297;62477;-71
2022/01/05 11:49:07;;;;;;;9.60;2.90;;;;;;;12.01;40.87;97613.57;103033;1299;73358;-70
2022/01/05 11:53:35;;;;;;;9.10;3.10;;;;;;;11.40;42.07;97605.40;103137;1296;68033;-69
2022/01/05 11:57:46;;;;;;;;;;;;;;;;;;;;;
2022/01/05 12:11:39;;;;;;;14.40;2.90;;;;;;;9.50;46.03;97610.49;103864;1287;71945;-70
2022/01/05 12:14:30;;;;;;;10.50;2.70;;;;;;;9.27;46.66;97614.70;104547;1281;68163;-70
2022/01/05 12:21:54;;;;;;;13.60;3.00;;;;;;;6.67;53.45;97633.10;104505;1281;59868;-70
2022/01/05 12:25:33;;;;;;;12.00;3.00;;;;;;;5.41;58.38;97632.23;104613;1280;59816;-70
2022/01/05 12:29:43;;;;;;;12.10;3.00;;;;;;;4.84;60.45;97638.83;105009;1280;72021;-69
2022/01/05 12:33:06;;;;;;;13.30;2.90;;;;;;;4.19;63.76;97640.48;104809;1280;68205;-69
2022/01/05 12:45:05;;;;;;;;;;;;;;;;;;;;;
2022/01/05 12:48:36;;;;;;;12.00;3.00;;;;;;;2.94;70.18;97633.65;105039;1273;71968;-69
2022/01/05 12:52:04;;;;;;;9.90;2.90;;;;;;;2.88;70.65;97632.23;104859;1273;68203;-70
2022/01/05 12:55:03;;;;;;;12.20;3.50;;;;;;;2.81;71.12;97638.24;104988;1274;71884;-70
2022/01/05 12:57:58;;;;;;;10.00;2.60;;;;;;;2.76;71.77;97644.45;105437;1274;59626;-71
2022/01/05 13:02:04;;;;;;;10.50;3.10;;;;;;;2.65;73.04;97648.98;105477;1274;59680;-70
2022/01/05 13:05:32;;;;;;;13.10;3.50;;;;;;;2.62;73.67;97647.55;105017;1274;72201;-70
2022/01/05 13:15:31;;;;;;;12.70;2.90;;;;;;;2.51;76.17;97659.33;105280;1274;72788;-70
2022/01/05 13:18:33;;;;;;;11.70;3.40;;;;;;;2.38;77.86;97665.45;105333;1274;59746;-70
2022/01/05 13:22:13;;;;;;;11.10;3.50;;;;;;;2.30;78.76;97667.80;105297;1274;59643;-70
2022/01/05 13:25:39;;;;;;;8.70;2.70;;;;;;;2.26;80.02;97673.78;104702;1273;1003360;-70
2022/01/05 13:28:56;;;;;;;10.40;3.10;;;;;;;2.17;81.42;97679.20;105240;1274;66725;-70
2022/01/05 13:32:18;;;;;;;11.90;2.70;;;;;;;2.09;82.63;97677.56;105149;1273;71245;-70
2022/01/05 13:35:17;;;;;;;9.40;3.60;;;;;;;2.05;83.90;97672.98;105215;1274;59717;-70
2022/01/05 13:38:51;;;;;;;12.20;3.40;;;;;;;1.97;84.76;97675.88;105253;1273;59776;-70
2022/01/05 13:42:12;;;;;;;10.90;3.40;;;;;;;1.91;84.72;97674.80;104455;1273;1003524;-69
2022/01/05 13:45:10;;;;;;;9.90;3.30;;;;;;;1.89;85.15;97677.27;105149;1273;67970;-70
2022/01/05 13:56:21;;;;;;;;;;;;;;;;;;;;;
2022/01/05 14:00:11;;;;;;;12.10;4.10;;;;;;;1.83;85.79;97681.56;104830;1273;71996;-69
2022/01/05 14:02:59;;;;;;;11.80;4.70;;;;;;;1.82;85.88;97683.27;105078;1274;66984;-70
2022/01/05 14:07:01;;;;;;;7.90;3.30;;;;;;;1.79;86.29;97679.98;104297;1273;1003517;-70
2022/01/05 14:11:12;;;;;;;10.80;3.60;;;;;;;1.74;86.59;97690.66;105394;1273;59548;-70
2022/01/05 14:19:39;;;;;;;12.10;3.40;;;;;;;1.76;86.60;97691.89;104255;1273;1002899;-70
2022/01/05 14:23:46;;;;;;;11.00;3.60;;;;;;;1.73;87.12;97696.03;105131;1273;67586;-70
2022/01/05 14:26:52;;;;;;;14.80;4.60;;;;;;;1.67;87.83;97691.04;105138;1273;72747;-70
2022/01/05 14:30:31;;;;;;;11.60;4.20;;;;;;;1.62;88.72;97688.30;105089;1272;59651;-71
2022/01/05 14:38:28;;;;;;;12.00;4.00;;;;;;;1.57;89.25;97690.40;104063;1287;73255;-70
2022/01/05 14:41:36;;;;;;;12.00;4.20;;;;;;;1.55;89.30;97694.77;104288;1287;68282;-69
2022/01/05 14:49:29;;;;;;;11.30;4.40;;;;;;;1.54;89.48;97694.16;104243;1285;59901;-68
2022/01/05 14:54:11;;;;;;;12.30;4.40;;;;;;;1.55;89.47;97696.05;104028;1286;59676;-69
2022/01/05 14:57:49;;;;;;;11.60;4.10;;;;;;;1.54;89.70;97698.20;103407;1293;73472;-67
2022/01/05 15:04:18;;;;;;;11.70;4.30;;;;;;;1.48;90.88;97699.73;103787;1290;71990;-69
2022/01/05 15:11:30;;;;;;;10.60;4.00;;;;;;;1.47;91.95;97717.96;104246;1281;59712;-68
2022/01/05 15:14:27;;;;;;;8.30;3.20;;;;;;;1.43;92.10;97724.54;104630;1279;72079;-68
2022/01/05 15:17:22;;;;;;;11.30;3.90;;;;;;;1.39;92.97;97723.95;104863;1279;67616;-68
2022/01/05 15:20:37;;;;;;;11.70;3.90;;;;;;;1.34;92.77;97730.11;104586;1279;72777;-69
2022/01/05 15:24:25;;;;;;;11.40;3.50;;;;;;;1.34;93.17;97732.77;104456;1279;59746;-68
2022/01/05 15:27:32;;;;;;;11.00;3.90;;;;;;;1.33;93.13;97730.01;104626;1279;59653;-67
2022/01/05 15:30:51;;;;;;;11.90;3.70;;;;;;;1.34;93.28;97731.87;104622;1279;71990;-67
2022/01/05 15:34:31;;;;;;;12.60;4.50;;;;;;;1.34;92.99;97731.30;105138;1273;66961;-69
2022/01/05 15:37:23;;;;;;;9.50;3.60;;;;;;;1.34;92.63;97737.77;105211;1273;71928;-68
2022/01/05 15:40:43;;;;;;;11.50;4.00;;;;;;;1.36;92.45;97741.67;105287;1273;59859;-67
2022/01/05 15:43:36;;;;;;;10.20;3.00;;;;;;;1.38;92.20;97746.60;105398;1273;59665;-68
2022/01/05 15:46:53;;;;;;;9.40;3.50;;;;;;;1.39;92.18;97744.95;104926;1277;72562;-68
2022/01/05 15:50:58;;;;;;;9.90;3.80;;;;;;;1.38;92.37;97744.50;104777;1277;66808;-68
2022/01/05 15:54:57;;;;;;;9.10;3.40;;;;;;;1.39;92.46;97749.66;104192;1284;74208;-69
2022/01/05 16:01:35;;;;;;;8.30;2.90;;;;;;;1.34;93.16;97752.27;104840;1285;59582;-68
2022/01/05 16:05:28;;;;;;;8.80;3.40;;;;;;;1.30;94.07;97752.95;104011;1285;73414;-67
2022/01/05 16:08:24;;;;;;;9.30;3.60;;;;;;;1.28;94.13;97749.64;104326;1285;67220;-67
2022/01/05 16:11:31;;;;;;;10.10;4.10;;;;;;;1.27;94.43;97746.55;104445;1279;72776;-68
2022/01/05 16:14:44;;;;;;;11.60;4.20;;;;;;;1.25;95.04;97749.73;104457;1279;59719;-67
2022/01/05 16:17:40;;;;;;;11.70;4.70;;;;;;;1.25;95.13;97753.19;104589;1279;59856;-68
2022/01/05 16:20:30;;;;;;;15.20;4.90;;;;;;;1.28;94.80;97759.45;105272;1279;73245;-66
2022/01/05 16:24:08;;;;;;;12.00;4.50;;;;;;;1.28;94.94;97756.83;105035;1274;67579;-68
2022/01/05 16:27:02;;;;;;;11.50;3.80;;;;;;;1.29;94.60;97760.55;105309;1272;73554;-67
2022/01/05 16:29:58;;;;;;;11.50;4.10;;;;;;;1.30;94.46;97764.54;105243;1273;59665;-67
2022/01/05 16:33:04;;;;;;;10.50;3.30;;;;;;;1.29;94.17;97766.67;105593;1273;59573;-68
2022/01/05 16:36:15;;;;;;;12.00;4.00;;;;;;;1.33;93.93;97762.36;105313;1273;73274;-68
2022/01/05 16:39:41;;;;;;;10.90;3.30;;;;;;;1.36;93.70;97755.27;105352;1274;68327;-67
2022/01/05 16:42:55;;;;;;;9.20;3.30;;;;;;;1.41;93.23;97756.33;105257;1274;72824;-67
2022/01/05 16:46:00;;;;;;;9.70;3.50;;;;;;;1.40;92.89;97757.10;105195;1273;59744;-68
2022/01/05 16:49:30;;;;;;;9.10;3.80;;;;;;;1.38;93.02;97759.01;105263;1274;60554;-66
2022/01/05 16:55:54;;;;;;;10.30;3.60;;;;;;;1.38;92.93;97760.77;104974;1273;68189;-68
2022/01/05 17:02:06;;;;;;;10.50;4.50;;;;;;;1.38;93.13;97760.60;105163;1273;59646;-67
2022/01/05 17:05:16;;;;;;;11.30;4.10;;;;;;;1.40;93.36;97767.47;105311;1273;60642;-68
2022/01/05 17:08:37;;;;;;;;;;;;;;;;;;;;;
2022/01/05 17:11:41;;;;;;;10.30;3.40;;;;;;;1.41;93.75;97763.33;105197;1273;68350;-67
2022/01/05 17:14:36;;;;;;;10.90;3.70;;;;;;;1.43;93.64;97773.15;105228;1274;72890;-68
2022/01/05 17:18:42;;;;;;;14.40;4.80;;;;;;;1.43;93.88;97775.71;104981;1273;59796;-67
2022/01/05 17:21:52;;;;;;;16.00;6.10;;;;;;;1.44;93.86;97777.45;105226;1273;61053;-67
2022/01/05 17:24:45;;;;;;;13.70;5.20;;;;;;;1.44;94.06;97776.49;105362;1273;72064;-69
2022/01/05 17:27:48;;;;;;;12.30;4.50;;;;;;;1.45;94.26;97772.26;105351;1273;68046;-67
2022/01/05 17:31:01;;;;;;;9.50;3.50;;;;;;;1.44;94.29;97776.16;105287;1274;73115;-67
2022/01/05 17:34:13;;;;;;;10.50;4.40;;;;;;;1.44;94.33;97779.36;105511;1272;59665;-67
2022/01/05 17:37:08;;;;;;;8.40;3.00;;;;;;;1.44;94.44;97777.81;105133;1273;60522;-67
2022/01/05 17:40:37;;;;;;;11.40;4.40;;;;;;;1.43;94.27;97774.14;105062;1273;73233;-67
2022/01/05 17:43:33;;;;;;;11.20;4.20;;;;;;;1.45;94.19;97775.08;104869;1274;68153;-67
2022/01/05 17:46:52;;;;;;;11.30;4.50;;;;;;;1.46;93.94;97773.58;104814;1272;72884;-67
2022/01/05 17:49:44;;;;;;;12.90;4.10;;;;;;;1.48;93.72;97777.09;105003;1273;59619;-68
2022/01/05 17:53:27;;;;;;;11.80;4.10;;;;;;;1.49;93.46;97781.42;105045;1273;61911;-67
2022/01/05 17:56:52;;;;;;;15.20;4.10;;;;;;;1.49;93.31;97775.43;105085;1273;71855;-67
2022/01/05 18:00:19;;;;;;;11.50;4.00;;;;;;;1.49;93.06;97777.23;105066;1273;68127;-67
2022/01/05 18:03:34;;;;;;;11.00;3.80;;;;;;;1.51;92.79;97777.73;105302;1273;73078;-67
2022/01/05 18:07:16;;;;;;;12.60;4.20;;;;;;;1.55;92.20;97779.92;105001;1273;59717;-70
2022/01/05 18:14:03;;;;;;;11.30;4.00;;;;;;;1.58;91.71;97783.54;105187;1273;71944;-67
2022/01/05 18:17:14;;;;;;;12.10;4.50;;;;;;;1.60;91.71;97778.80;105230;1274;68169;-67
2022/01/05 18:20:11;;;;;;;10.50;3.70;;;;;;;1.64;91.52;97780.40;105098;1273;73487;-68